sensor_id;sensor_type;location;lat;lon;timestamp;P1;durP1;ratioP1;P2;durP2;ratioP2
53903;SDS011;39812;52.430;16.936;2023-06-19T00:00:52;12.75;;;9.18;;
53903;SDS011;39812;52.430;16.936;2023-06-19T00:03:17;15.88;;;9.50;;
53903;SDS011;39812;52.430;16.936;2023-06-19T00:05:43;14.85;;;8.57;;
53903;SDS011;39812;52.430;16.936;2023-06-19T00:08:08;11.73;;;9.85;;
53903;SDS011;39812;52.430;16.936;2023-06-19T00:10:34;13.43;;;9.50;;
53903;SDS011;39812;52.430;16.936;2023-06-19T00:13:00;12.35;;;8.60;;
53903;SDS011;39812;52.430;16.936;2023-06-19T00:15:26;16.40;;;9.80;;
53903;SDS011;39812;52.430;16.936;2023-06-19T00:17:54;11.82;;;9.68;;
53903;SDS011;39812;52.430;16.936;2023-06-19T00:20:21;12.48;;;9.15;;
53903;SDS011;39812;52.430;16.936;2023-06-19T00:22:46;13.93;;;8.70;;
53903;SDS011;39812;52.430;16.936;2023-06-19T00:25:16;12.05;;;9.07;;
53903;SDS011;39812;52.430;16.936;2023-06-19T00:27:43;16.20;;;10.25;;
53903;SDS011;39812;52.430;16.936;2023-06-19T00:30:09;16.27;;;11.15;;
53903;SDS011;39812;52.430;16.936;2023-06-19T00:32:35;16.27;;;9.63;;
53903;SDS011;39812;52.430;16.936;2023-06-19T00:35:12;14.43;;;10.18;;
53903;SDS011;39812;52.430;16.936;2023-06-19T00:37:39;11.10;;;8.48;;
53903;SDS011;39812;52.430;16.936;2023-06-19T00:40:06;10.13;;;7.45;;
53903;SDS011;39812;52.430;16.936;2023-06-19T00:42:34;12.32;;;8.90;;
53903;SDS011;39812;52.430;16.936;2023-06-19T00:45:00;14.95;;;9.30;;
53903;SDS011;39812;52.430;16.936;2023-06-19T00:47:25;11.38;;;8.82;;
53903;SDS011;39812;52.430;16.936;2023-06-19T00:49:51;14.32;;;8.95;;
53903;SDS011;39812;52.430;16.936;2023-06-19T00:52:17;14.55;;;10.35;;
53903;SDS011;39812;52.430;16.936;2023-06-19T00:54:43;16.83;;;11.15;;
53903;SDS011;39812;52.430;16.936;2023-06-19T00:57:09;17.42;;;12.02;;
53903;SDS011;39812;52.430;16.936;2023-06-19T00:59:35;16.60;;;10.70;;
53903;SDS011;39812;52.430;16.936;2023-06-19T01:02:01;17.67;;;12.00;;
53903;SDS011;39812;52.430;16.936;2023-06-19T01:04:28;17.35;;;11.95;;
53903;SDS011;39812;52.430;16.936;2023-06-19T01:06:54;16.25;;;12.18;;
53903;SDS011;39812;52.430;16.936;2023-06-19T01:09:23;15.32;;;11.13;;
53903;SDS011;39812;52.430;16.936;2023-06-19T01:11:55;20.63;;;13.10;;
53903;SDS011;39812;52.430;16.936;2023-06-19T01:14:38;18.88;;;13.65;;
53903;SDS011;39812;52.430;16.936;2023-06-19T01:17:10;18.27;;;13.35;;
53903;SDS011;39812;52.430;16.936;2023-06-19T01:19:36;18.52;;;12.30;;
53903;SDS011;39812;52.430;16.936;2023-06-19T01:22:04;18.75;;;11.77;;
53903;SDS011;39812;52.430;16.936;2023-06-19T01:24:30;17.65;;;12.40;;
53903;SDS011;39812;52.430;16.936;2023-06-19T01:26:55;20.08;;;12.38;;
53903;SDS011;39812;52.430;16.936;2023-06-19T01:29:21;18.27;;;12.50;;
53903;SDS011;39812;52.430;16.936;2023-06-19T01:34:35;16.48;;;12.27;;
53903;SDS011;39812;52.430;16.936;2023-06-19T01:37:02;18.42;;;12.88;;
53903;SDS011;39812;52.430;16.936;2023-06-19T01:39:30;20.33;;;12.65;;
53903;SDS011;39812;52.430;16.936;2023-06-19T01:41:57;16.40;;;12.35;;
53903;SDS011;39812;52.430;16.936;2023-06-19T01:44:24;15.25;;;11.63;;
53903;SDS011;39812;52.430;16.936;2023-06-19T01:46:50;17.38;;;11.98;;
53903;SDS011;39812;52.430;16.936;2023-06-19T01:49:16;20.25;;;12.55;;
53903;SDS011;39812;52.430;16.936;2023-06-19T01:51:42;18.50;;;13.23;;
53903;SDS011;39812;52.430;16.936;2023-06-19T01:54:08;17.10;;;12.82;;
53903;SDS011;39812;52.430;16.936;2023-06-19T01:56:33;15.38;;;12.18;;
53903;SDS011;39812;52.430;16.936;2023-06-19T01:58:59;17.63;;;12.23;;
53903;SDS011;39812;52.430;16.936;2023-06-19T02:01:25;18.20;;;12.55;;
53903;SDS011;39812;52.430;16.936;2023-06-19T02:03:50;17.33;;;13.00;;
53903;SDS011;39812;52.430;16.936;2023-06-19T02:06:16;18.17;;;12.15;;
53903;SDS011;39812;52.430;16.936;2023-06-19T02:08:42;18.15;;;13.35;;
53903;SDS011;39812;52.430;16.936;2023-06-19T02:11:08;19.08;;;12.93;;
53903;SDS011;39812;52.430;16.936;2023-06-19T02:13:33;17.77;;;13.20;;
53903;SDS011;39812;52.430;16.936;2023-06-19T02:15:59;19.52;;;13.20;;
53903;SDS011;39812;52.430;16.936;2023-06-19T02:18:24;19.98;;;13.38;;
53903;SDS011;39812;52.430;16.936;2023-06-19T02:20:50;22.88;;;14.70;;
53903;SDS011;39812;52.430;16.936;2023-06-19T02:23:16;19.80;;;12.77;;
53903;SDS011;39812;52.430;16.936;2023-06-19T02:25:42;19.08;;;13.40;;
53903;SDS011;39812;52.430;16.936;2023-06-19T02:28:07;17.65;;;12.80;;
53903;SDS011;39812;52.430;16.936;2023-06-19T02:30:33;22.50;;;13.65;;
53903;SDS011;39812;52.430;16.936;2023-06-19T02:32:58;18.75;;;12.95;;
53903;SDS011;39812;52.430;16.936;2023-06-19T02:35:24;21.83;;;13.75;;
53903;SDS011;39812;52.430;16.936;2023-06-19T02:37:50;24.63;;;15.75;;
53903;SDS011;39812;52.430;16.936;2023-06-19T02:40:15;21.75;;;15.98;;
53903;SDS011;39812;52.430;16.936;2023-06-19T02:42:41;27.75;;;15.45;;
53903;SDS011;39812;52.430;16.936;2023-06-19T02:45:06;23.77;;;14.27;;
53903;SDS011;39812;52.430;16.936;2023-06-19T02:47:33;23.33;;;15.32;;
53903;SDS011;39812;52.430;16.936;2023-06-19T02:49:59;26.08;;;15.25;;
53903;SDS011;39812;52.430;16.936;2023-06-19T02:52:26;23.85;;;15.05;;
53903;SDS011;39812;52.430;16.936;2023-06-19T02:54:52;26.17;;;16.58;;
53903;SDS011;39812;52.430;16.936;2023-06-19T02:57:17;21.27;;;14.52;;
53903;SDS011;39812;52.430;16.936;2023-06-19T02:59:43;23.58;;;14.50;;
53903;SDS011;39812;52.430;16.936;2023-06-19T03:02:10;22.20;;;14.68;;
53903;SDS011;39812;52.430;16.936;2023-06-19T03:04:36;21.83;;;13.95;;
53903;SDS011;39812;52.430;16.936;2023-06-19T03:07:02;22.60;;;14.45;;
53903;SDS011;39812;52.430;16.936;2023-06-19T03:09:28;24.75;;;15.07;;
53903;SDS011;39812;52.430;16.936;2023-06-19T03:11:54;22.38;;;14.75;;
53903;SDS011;39812;52.430;16.936;2023-06-19T03:14:19;23.65;;;14.02;;
53903;SDS011;39812;52.430;16.936;2023-06-19T03:16:45;24.83;;;16.33;;
53903;SDS011;39812;52.430;16.936;2023-06-19T03:19:12;25.75;;;17.10;;
53903;SDS011;39812;52.430;16.936;2023-06-19T03:21:37;22.73;;;15.48;;
53903;SDS011;39812;52.430;16.936;2023-06-19T03:24:03;23.08;;;14.82;;
53903;SDS011;39812;52.430;16.936;2023-06-19T03:26:29;21.65;;;15.45;;
53903;SDS011;39812;52.430;16.936;2023-06-19T03:28:54;19.55;;;15.07;;
53903;SDS011;39812;52.430;16.936;2023-06-19T03:31:20;22.58;;;16.05;;
53903;SDS011;39812;52.430;16.936;2023-06-19T03:33:46;26.50;;;16.67;;
53903;SDS011;39812;52.430;16.936;2023-06-19T03:36:11;20.77;;;15.90;;
53903;SDS011;39812;52.430;16.936;2023-06-19T03:38:37;25.38;;;16.30;;
53903;SDS011;39812;52.430;16.936;2023-06-19T03:41:03;24.45;;;15.43;;
53903;SDS011;39812;52.430;16.936;2023-06-19T03:43:28;21.23;;;14.75;;
53903;SDS011;39812;52.430;16.936;2023-06-19T03:45:54;22.30;;;14.75;;
53903;SDS011;39812;52.430;16.936;2023-06-19T03:48:19;19.88;;;14.07;;
53903;SDS011;39812;52.430;16.936;2023-06-19T03:50:45;20.88;;;15.25;;
53903;SDS011;39812;52.430;16.936;2023-06-19T03:53:11;20.13;;;15.23;;
53903;SDS011;39812;52.430;16.936;2023-06-19T03:55:36;24.70;;;15.25;;
53903;SDS011;39812;52.430;16.936;2023-06-19T03:58:02;20.38;;;14.43;;
53903;SDS011;39812;52.430;16.936;2023-06-19T04:00:28;22.90;;;16.42;;
53903;SDS011;39812;52.430;16.936;2023-06-19T04:02:54;23.13;;;16.23;;
53903;SDS011;39812;52.430;16.936;2023-06-19T04:05:19;24.42;;;16.38;;
53903;SDS011;39812;52.430;16.936;2023-06-19T04:07:45;23.90;;;15.20;;
53903;SDS011;39812;52.430;16.936;2023-06-19T04:10:11;22.50;;;14.57;;
53903;SDS011;39812;52.430;16.936;2023-06-19T04:12:37;28.10;;;16.95;;
53903;SDS011;39812;52.430;16.936;2023-06-19T04:15:03;28.63;;;17.38;;
53903;SDS011;39812;52.430;16.936;2023-06-19T04:17:29;25.65;;;16.83;;
53903;SDS011;39812;52.430;16.936;2023-06-19T04:19:55;25.75;;;16.38;;
53903;SDS011;39812;52.430;16.936;2023-06-19T04:22:20;22.10;;;16.20;;
53903;SDS011;39812;52.430;16.936;2023-06-19T04:24:46;26.75;;;16.70;;
53903;SDS011;39812;52.430;16.936;2023-06-19T04:27:11;23.90;;;16.40;;
53903;SDS011;39812;52.430;16.936;2023-06-19T04:29:37;23.02;;;16.35;;
53903;SDS011;39812;52.430;16.936;2023-06-19T04:32:03;26.83;;;16.23;;
53903;SDS011;39812;52.430;16.936;2023-06-19T04:34:35;24.98;;;16.95;;
53903;SDS011;39812;52.430;16.936;2023-06-19T04:37:02;23.75;;;16.75;;
53903;SDS011;39812;52.430;16.936;2023-06-19T04:39:27;25.73;;;17.52;;
53903;SDS011;39812;52.430;16.936;2023-06-19T04:41:53;19.33;;;14.70;;
53903;SDS011;39812;52.430;16.936;2023-06-19T04:44:19;25.08;;;15.85;;
53903;SDS011;39812;52.430;16.936;2023-06-19T04:46:44;21.25;;;15.10;;
53903;SDS011;39812;52.430;16.936;2023-06-19T04:49:10;21.88;;;14.75;;
53903;SDS011;39812;52.430;16.936;2023-06-19T04:51:35;22.38;;;15.43;;
53903;SDS011;39812;52.430;16.936;2023-06-19T04:54:02;22.63;;;16.05;;
53903;SDS011;39812;52.430;16.936;2023-06-19T04:56:28;25.70;;;15.73;;
53903;SDS011;39812;52.430;16.936;2023-06-19T04:58:54;23.08;;;15.52;;
53903;SDS011;39812;52.430;16.936;2023-06-19T05:01:24;24.08;;;15.65;;
53903;SDS011;39812;52.430;16.936;2023-06-19T05:03:53;20.77;;;14.15;;
53903;SDS011;39812;52.430;16.936;2023-06-19T05:06:23;22.77;;;15.50;;
53903;SDS011;39812;52.430;16.936;2023-06-19T05:08:49;23.77;;;15.25;;
53903;SDS011;39812;52.430;16.936;2023-06-19T05:11:15;20.60;;;14.98;;
53903;SDS011;39812;52.430;16.936;2023-06-19T05:13:40;21.30;;;14.48;;
53903;SDS011;39812;52.430;16.936;2023-06-19T05:16:06;18.77;;;13.60;;
53903;SDS011;39812;52.430;16.936;2023-06-19T05:18:31;18.48;;;13.80;;
53903;SDS011;39812;52.430;16.936;2023-06-19T05:20:57;18.30;;;13.00;;
53903;SDS011;39812;52.430;16.936;2023-06-19T05:23:23;20.15;;;14.00;;
53903;SDS011;39812;52.430;16.936;2023-06-19T05:25:48;22.33;;;13.95;;
53903;SDS011;39812;52.430;16.936;2023-06-19T05:28:14;17.65;;;12.85;;
53903;SDS011;39812;52.430;16.936;2023-06-19T05:30:39;18.63;;;13.10;;
53903;SDS011;39812;52.430;16.936;2023-06-19T05:33:05;17.17;;;12.27;;
53903;SDS011;39812;52.430;16.936;2023-06-19T05:35:31;17.33;;;12.73;;
53903;SDS011;39812;52.430;16.936;2023-06-19T05:37:57;16.00;;;12.30;;
53903;SDS011;39812;52.430;16.936;2023-06-19T05:40:22;16.60;;;12.50;;
53903;SDS011;39812;52.430;16.936;2023-06-19T05:42:48;22.75;;;13.27;;
53903;SDS011;39812;52.430;16.936;2023-06-19T05:45:14;16.77;;;11.52;;
53903;SDS011;39812;52.430;16.936;2023-06-19T05:47:39;14.57;;;11.20;;
53903;SDS011;39812;52.430;16.936;2023-06-19T05:50:05;14.88;;;10.27;;
53903;SDS011;39812;52.430;16.936;2023-06-19T05:52:31;13.30;;;10.07;;
53903;SDS011;39812;52.430;16.936;2023-06-19T05:54:57;17.83;;;12.18;;
53903;SDS011;39812;52.430;16.936;2023-06-19T05:57:23;13.93;;;10.90;;
53903;SDS011;39812;52.430;16.936;2023-06-19T05:59:49;18.13;;;11.43;;
53903;SDS011;39812;52.430;16.936;2023-06-19T06:02:16;15.70;;;11.18;;
53903;SDS011;39812;52.430;16.936;2023-06-19T06:04:43;18.40;;;12.25;;
53903;SDS011;39812;52.430;16.936;2023-06-19T06:07:09;16.90;;;11.65;;
53903;SDS011;39812;52.430;16.936;2023-06-19T06:09:34;16.15;;;11.15;;
53903;SDS011;39812;52.430;16.936;2023-06-19T06:12:00;14.38;;;10.50;;
53903;SDS011;39812;52.430;16.936;2023-06-19T06:14:26;14.20;;;10.18;;
53903;SDS011;39812;52.430;16.936;2023-06-19T06:16:52;16.52;;;10.32;;
53903;SDS011;39812;52.430;16.936;2023-06-19T06:19:21;12.65;;;9.05;;
53903;SDS011;39812;52.430;16.936;2023-06-19T06:21:51;11.93;;;9.20;;
53903;SDS011;39812;52.430;16.936;2023-06-19T06:24:16;12.30;;;9.00;;
53903;SDS011;39812;52.430;16.936;2023-06-19T06:26:42;11.15;;;8.20;;
53903;SDS011;39812;52.430;16.936;2023-06-19T06:29:08;15.20;;;9.68;;
53903;SDS011;39812;52.430;16.936;2023-06-19T06:31:34;12.90;;;8.15;;
53903;SDS011;39812;52.430;16.936;2023-06-19T06:34:00;10.25;;;7.45;;
53903;SDS011;39812;52.430;16.936;2023-06-19T06:36:25;12.25;;;8.15;;
53903;SDS011;39812;52.430;16.936;2023-06-19T06:38:51;10.27;;;7.85;;
53903;SDS011;39812;52.430;16.936;2023-06-19T06:41:17;11.48;;;6.82;;
53903;SDS011;39812;52.430;16.936;2023-06-19T06:43:42;8.43;;;6.72;;
53903;SDS011;39812;52.430;16.936;2023-06-19T06:46:08;10.00;;;6.32;;
53903;SDS011;39812;52.430;16.936;2023-06-19T06:48:35;9.15;;;7.18;;
53903;SDS011;39812;52.430;16.936;2023-06-19T06:51:01;9.10;;;6.32;;
53903;SDS011;39812;52.430;16.936;2023-06-19T06:53:29;9.30;;;6.40;;
53903;SDS011;39812;52.430;16.936;2023-06-19T06:55:57;9.15;;;5.90;;
53903;SDS011;39812;52.430;16.936;2023-06-19T06:58:24;9.30;;;5.97;;
53903;SDS011;39812;52.430;16.936;2023-06-19T07:00:50;7.85;;;5.22;;
53903;SDS011;39812;52.430;16.936;2023-06-19T07:03:16;7.93;;;5.22;;
53903;SDS011;39812;52.430;16.936;2023-06-19T07:05:43;5.65;;;3.90;;
53903;SDS011;39812;52.430;16.936;2023-06-19T07:08:08;6.38;;;4.47;;
53903;SDS011;39812;52.430;16.936;2023-06-19T07:10:34;8.15;;;4.18;;
53903;SDS011;39812;52.430;16.936;2023-06-19T07:13:00;6.07;;;3.75;;
53903;SDS011;39812;52.430;16.936;2023-06-19T07:15:25;7.22;;;4.93;;
53903;SDS011;39812;52.430;16.936;2023-06-19T07:17:51;7.05;;;4.50;;
53903;SDS011;39812;52.430;16.936;2023-06-19T07:20:17;8.25;;;3.15;;
53903;SDS011;39812;52.430;16.936;2023-06-19T07:22:43;5.43;;;3.33;;
53903;SDS011;39812;52.430;16.936;2023-06-19T07:25:10;6.45;;;4.22;;
53903;SDS011;39812;52.430;16.936;2023-06-19T07:27:36;5.07;;;3.90;;
53903;SDS011;39812;52.430;16.936;2023-06-19T07:30:02;5.72;;;4.60;;
53903;SDS011;39812;52.430;16.936;2023-06-19T07:32:28;7.45;;;4.25;;
53903;SDS011;39812;52.430;16.936;2023-06-19T07:34:54;7.22;;;4.35;;
53903;SDS011;39812;52.430;16.936;2023-06-19T07:37:19;5.75;;;4.00;;
53903;SDS011;39812;52.430;16.936;2023-06-19T07:39:48;5.65;;;3.88;;
53903;SDS011;39812;52.430;16.936;2023-06-19T07:42:15;5.63;;;4.20;;
53903;SDS011;39812;52.430;16.936;2023-06-19T07:44:41;5.15;;;3.90;;
53903;SDS011;39812;52.430;16.936;2023-06-19T07:47:08;6.35;;;3.63;;
53903;SDS011;39812;52.430;16.936;2023-06-19T07:49:34;5.47;;;4.03;;
53903;SDS011;39812;52.430;16.936;2023-06-19T07:52:00;4.75;;;4.00;;
53903;SDS011;39812;52.430;16.936;2023-06-19T07:54:26;4.82;;;3.92;;
53903;SDS011;39812;52.430;16.936;2023-06-19T07:56:52;5.55;;;3.90;;
53903;SDS011;39812;52.430;16.936;2023-06-19T07:59:18;7.50;;;4.20;;
53903;SDS011;39812;52.430;16.936;2023-06-19T08:01:43;5.10;;;3.78;;
53903;SDS011;39812;52.430;16.936;2023-06-19T08:04:09;7.20;;;4.00;;
53903;SDS011;39812;52.430;16.936;2023-06-19T08:06:35;6.60;;;3.72;;
53903;SDS011;39812;52.430;16.936;2023-06-19T08:09:01;4.95;;;3.80;;
53903;SDS011;39812;52.430;16.936;2023-06-19T08:11:27;5.80;;;3.92;;
53903;SDS011;39812;52.430;16.936;2023-06-19T08:13:54;4.60;;;3.70;;
53903;SDS011;39812;52.430;16.936;2023-06-19T08:16:19;5.68;;;3.97;;
53903;SDS011;39812;52.430;16.936;2023-06-19T08:18:45;5.85;;;4.20;;
53903;SDS011;39812;52.430;16.936;2023-06-19T08:21:11;5.07;;;3.92;;
53903;SDS011;39812;52.430;16.936;2023-06-19T08:23:37;6.78;;;4.18;;
53903;SDS011;39812;52.430;16.936;2023-06-19T08:26:04;5.35;;;4.03;;
53903;SDS011;39812;52.430;16.936;2023-06-19T08:28:33;4.45;;;3.55;;
53903;SDS011;39812;52.430;16.936;2023-06-19T08:30:59;7.93;;;4.22;;
53903;SDS011;39812;52.430;16.936;2023-06-19T08:33:25;5.00;;;3.95;;
53903;SDS011;39812;52.430;16.936;2023-06-19T08:35:50;7.85;;;4.13;;
53903;SDS011;39812;52.430;16.936;2023-06-19T08:38:16;5.28;;;3.95;;
53903;SDS011;39812;52.430;16.936;2023-06-19T08:40:42;7.32;;;3.92;;
53903;SDS011;39812;52.430;16.936;2023-06-19T08:43:09;4.95;;;3.90;;
53903;SDS011;39812;52.430;16.936;2023-06-19T08:45:34;6.45;;;3.70;;
53903;SDS011;39812;52.430;16.936;2023-06-19T08:48:00;5.65;;;4.40;;
53903;SDS011;39812;52.430;16.936;2023-06-19T08:50:28;6.45;;;4.00;;
53903;SDS011;39812;52.430;16.936;2023-06-19T08:52:55;5.18;;;3.92;;
53903;SDS011;39812;52.430;16.936;2023-06-19T08:55:21;5.88;;;3.92;;
53903;SDS011;39812;52.430;16.936;2023-06-19T08:57:47;9.05;;;3.75;;
53903;SDS011;39812;52.430;16.936;2023-06-19T09:00:22;8.05;;;3.92;;
53903;SDS011;39812;52.430;16.936;2023-06-19T09:02:50;6.63;;;4.07;;
53903;SDS011;39812;52.430;16.936;2023-06-19T09:05:16;5.30;;;4.45;;
53903;SDS011;39812;52.430;16.936;2023-06-19T09:07:43;5.38;;;3.70;;
53903;SDS011;39812;52.430;16.936;2023-06-19T09:10:16;5.40;;;4.15;;
53903;SDS011;39812;52.430;16.936;2023-06-19T09:12:43;5.03;;;3.83;;
53903;SDS011;39812;52.430;16.936;2023-06-19T09:15:20;6.22;;;4.22;;
53903;SDS011;39812;52.430;16.936;2023-06-19T09:17:46;6.85;;;4.28;;
53903;SDS011;39812;52.430;16.936;2023-06-19T09:20:12;5.55;;;4.03;;
53903;SDS011;39812;52.430;16.936;2023-06-19T09:22:38;6.28;;;3.60;;
53903;SDS011;39812;52.430;16.936;2023-06-19T09:25:04;5.18;;;4.03;;
53903;SDS011;39812;52.430;16.936;2023-06-19T09:27:34;5.32;;;4.18;;
53903;SDS011;39812;52.430;16.936;2023-06-19T09:30:00;6.38;;;4.10;;
53903;SDS011;39812;52.430;16.936;2023-06-19T09:32:26;5.47;;;4.10;;
53903;SDS011;39812;52.430;16.936;2023-06-19T09:34:56;5.00;;;3.90;;
53903;SDS011;39812;52.430;16.936;2023-06-19T09:37:26;6.65;;;4.60;;
53903;SDS011;39812;52.430;16.936;2023-06-19T09:39:57;4.53;;;3.97;;
53903;SDS011;39812;52.430;16.936;2023-06-19T09:42:27;6.00;;;3.80;;
53903;SDS011;39812;52.430;16.936;2023-06-19T09:44:59;6.07;;;4.13;;
53903;SDS011;39812;52.430;16.936;2023-06-19T09:47:29;6.22;;;4.18;;
53903;SDS011;39812;52.430;16.936;2023-06-19T09:50:16;7.35;;;4.05;;
53903;SDS011;39812;52.430;16.936;2023-06-19T09:52:42;6.40;;;4.45;;
53903;SDS011;39812;52.430;16.936;2023-06-19T09:55:09;5.55;;;4.07;;
53903;SDS011;39812;52.430;16.936;2023-06-19T09:57:38;5.80;;;3.97;;
53903;SDS011;39812;52.430;16.936;2023-06-19T10:00:05;7.05;;;4.53;;
53903;SDS011;39812;52.430;16.936;2023-06-19T10:02:41;6.93;;;4.32;;
53903;SDS011;39812;52.430;16.936;2023-06-19T10:05:08;6.22;;;4.15;;
53903;SDS011;39812;52.430;16.936;2023-06-19T10:07:37;8.93;;;4.60;;
53903;SDS011;39812;52.430;16.936;2023-06-19T10:12:39;6.57;;;4.03;;
53903;SDS011;39812;52.430;16.936;2023-06-19T10:17:50;5.90;;;4.47;;
53903;SDS011;39812;52.430;16.936;2023-06-19T10:23:05;8.13;;;4.45;;
53903;SDS011;39812;52.430;16.936;2023-06-19T10:28:26;8.23;;;4.53;;
53903;SDS011;39812;52.430;16.936;2023-06-19T10:30:59;7.30;;;4.40;;
53903;SDS011;39812;52.430;16.936;2023-06-19T10:33:30;7.00;;;4.30;;
53903;SDS011;39812;52.430;16.936;2023-06-19T10:35:59;4.78;;;4.20;;
53903;SDS011;39812;52.430;16.936;2023-06-19T10:38:38;7.25;;;4.05;;
53903;SDS011;39812;52.430;16.936;2023-06-19T10:41:03;4.30;;;3.90;;
53903;SDS011;39812;52.430;16.936;2023-06-19T10:43:29;5.68;;;3.97;;
53903;SDS011;39812;52.430;16.936;2023-06-19T10:45:57;6.72;;;4.30;;
53903;SDS011;39812;52.430;16.936;2023-06-19T10:48:24;5.05;;;3.80;;
53903;SDS011;39812;52.430;16.936;2023-06-19T10:50:50;6.65;;;4.18;;
53903;SDS011;39812;52.430;16.936;2023-06-19T10:53:32;5.95;;;4.47;;
53903;SDS011;39812;52.430;16.936;2023-06-19T10:55:59;6.60;;;4.90;;
53903;SDS011;39812;52.430;16.936;2023-06-19T10:58:26;5.50;;;4.47;;
53903;SDS011;39812;52.430;16.936;2023-06-19T11:00:53;5.10;;;4.00;;
53903;SDS011;39812;52.430;16.936;2023-06-19T11:03:21;7.40;;;4.53;;
53903;SDS011;39812;52.430;16.936;2023-06-19T11:05:47;5.35;;;4.28;;
53903;SDS011;39812;52.430;16.936;2023-06-19T11:08:20;6.13;;;4.25;;
53903;SDS011;39812;52.430;16.936;2023-06-19T11:10:46;5.50;;;4.47;;
53903;SDS011;39812;52.430;16.936;2023-06-19T11:13:16;6.82;;;4.40;;
53903;SDS011;39812;52.430;16.936;2023-06-19T11:15:43;6.43;;;4.40;;
53903;SDS011;39812;52.430;16.936;2023-06-19T11:18:10;5.82;;;4.47;;
53903;SDS011;39812;52.430;16.936;2023-06-19T11:20:45;5.50;;;4.00;;
53903;SDS011;39812;52.430;16.936;2023-06-19T11:23:15;8.10;;;4.50;;
53903;SDS011;39812;52.430;16.936;2023-06-19T11:25:42;5.32;;;4.25;;
53903;SDS011;39812;52.430;16.936;2023-06-19T11:28:15;5.45;;;4.25;;
53903;SDS011;39812;52.430;16.936;2023-06-19T11:30:47;7.32;;;4.60;;
53903;SDS011;39812;52.430;16.936;2023-06-19T11:33:23;5.10;;;4.53;;
53903;SDS011;39812;52.430;16.936;2023-06-19T11:38:18;7.40;;;4.32;;
53903;SDS011;39812;52.430;16.936;2023-06-19T11:40:44;6.28;;;4.15;;
53903;SDS011;39812;52.430;16.936;2023-06-19T11:43:11;5.70;;;4.32;;
53903;SDS011;39812;52.430;16.936;2023-06-19T11:45:47;6.10;;;3.83;;
53903;SDS011;39812;52.430;16.936;2023-06-19T11:48:14;4.65;;;3.70;;
53903;SDS011;39812;52.430;16.936;2023-06-19T11:50:46;5.60;;;4.40;;
53903;SDS011;39812;52.430;16.936;2023-06-19T11:53:11;5.13;;;3.88;;
53903;SDS011;39812;52.430;16.936;2023-06-19T11:55:38;5.95;;;3.92;;
53903;SDS011;39812;52.430;16.936;2023-06-19T11:58:03;6.68;;;3.92;;
53903;SDS011;39812;52.430;16.936;2023-06-19T12:00:29;4.15;;;3.65;;
53903;SDS011;39812;52.430;16.936;2023-06-19T12:02:55;4.72;;;3.60;;
53903;SDS011;39812;52.430;16.936;2023-06-19T12:05:22;5.18;;;3.58;;
53903;SDS011;39812;52.430;16.936;2023-06-19T12:07:48;6.68;;;3.47;;
53903;SDS011;39812;52.430;16.936;2023-06-19T12:10:13;4.85;;;3.75;;
53903;SDS011;39812;52.430;16.936;2023-06-19T12:12:39;4.93;;;3.70;;
53903;SDS011;39812;52.430;16.936;2023-06-19T12:15:05;4.80;;;3.40;;
53903;SDS011;39812;52.430;16.936;2023-06-19T12:17:31;3.80;;;3.05;;
53903;SDS011;39812;52.430;16.936;2023-06-19T12:19:57;3.92;;;3.30;;
53903;SDS011;39812;52.430;16.936;2023-06-19T12:22:23;3.67;;;3.30;;
53903;SDS011;39812;52.430;16.936;2023-06-19T12:24:49;3.95;;;3.28;;
53903;SDS011;39812;52.430;16.936;2023-06-19T12:27:15;4.38;;;3.20;;
53903;SDS011;39812;52.430;16.936;2023-06-19T12:29:40;4.75;;;3.10;;
53903;SDS011;39812;52.430;16.936;2023-06-19T12:32:06;3.83;;;2.88;;
53903;SDS011;39812;52.430;16.936;2023-06-19T12:34:32;4.15;;;2.80;;
53903;SDS011;39812;52.430;16.936;2023-06-19T12:36:58;6.07;;;2.88;;
53903;SDS011;39812;52.430;16.936;2023-06-19T12:39:23;5.10;;;3.25;;
53903;SDS011;39812;52.430;16.936;2023-06-19T12:41:50;5.30;;;3.40;;
53903;SDS011;39812;52.430;16.936;2023-06-19T12:44:16;3.30;;;3.00;;
53903;SDS011;39812;52.430;16.936;2023-06-19T12:46:42;4.88;;;2.90;;
53903;SDS011;39812;52.430;16.936;2023-06-19T12:49:08;3.20;;;2.70;;
53903;SDS011;39812;52.430;16.936;2023-06-19T12:51:33;6.35;;;3.17;;
53903;SDS011;39812;52.430;16.936;2023-06-19T12:53:59;3.83;;;3.35;;
53903;SDS011;39812;52.430;16.936;2023-06-19T12:56:25;5.05;;;3.40;;
53903;SDS011;39812;52.430;16.936;2023-06-19T12:58:50;5.47;;;3.33;;
53903;SDS011;39812;52.430;16.936;2023-06-19T13:01:16;5.15;;;3.50;;
53903;SDS011;39812;52.430;16.936;2023-06-19T13:03:42;6.57;;;3.40;;
53903;SDS011;39812;52.430;16.936;2023-06-19T13:06:07;4.47;;;3.63;;
53903;SDS011;39812;52.430;16.936;2023-06-19T13:08:33;4.38;;;3.42;;
53903;SDS011;39812;52.430;16.936;2023-06-19T13:10:58;4.50;;;3.75;;
53903;SDS011;39812;52.430;16.936;2023-06-19T13:13:24;8.70;;;4.03;;
53903;SDS011;39812;52.430;16.936;2023-06-19T13:15:50;4.32;;;3.50;;
53903;SDS011;39812;52.430;16.936;2023-06-19T13:18:15;4.20;;;3.72;;
53903;SDS011;39812;52.430;16.936;2023-06-19T13:20:42;5.82;;;3.72;;
53903;SDS011;39812;52.430;16.936;2023-06-19T13:23:09;5.97;;;3.63;;
53903;SDS011;39812;52.430;16.936;2023-06-19T13:25:35;5.53;;;3.88;;
53903;SDS011;39812;52.430;16.936;2023-06-19T13:28:01;4.82;;;3.78;;
53903;SDS011;39812;52.430;16.936;2023-06-19T13:30:26;5.18;;;3.70;;
53903;SDS011;39812;52.430;16.936;2023-06-19T13:32:52;6.00;;;4.05;;
53903;SDS011;39812;52.430;16.936;2023-06-19T13:35:18;4.55;;;3.60;;
53903;SDS011;39812;52.430;16.936;2023-06-19T13:37:43;5.20;;;4.05;;
53903;SDS011;39812;52.430;16.936;2023-06-19T13:40:09;5.88;;;3.88;;
53903;SDS011;39812;52.430;16.936;2023-06-19T13:42:35;4.80;;;3.83;;
53903;SDS011;39812;52.430;16.936;2023-06-19T13:45:01;4.95;;;3.22;;
53903;SDS011;39812;52.430;16.936;2023-06-19T13:47:27;4.82;;;3.70;;
53903;SDS011;39812;52.430;16.936;2023-06-19T13:49:52;5.93;;;3.35;;
53903;SDS011;39812;52.430;16.936;2023-06-19T13:52:18;3.92;;;3.53;;
53903;SDS011;39812;52.430;16.936;2023-06-19T13:54:44;4.18;;;3.67;;
53903;SDS011;39812;52.430;16.936;2023-06-19T13:57:09;6.53;;;4.05;;
53903;SDS011;39812;52.430;16.936;2023-06-19T13:59:35;4.57;;;3.60;;
53903;SDS011;39812;52.430;16.936;2023-06-19T14:02:01;6.30;;;3.75;;
53903;SDS011;39812;52.430;16.936;2023-06-19T14:04:27;6.68;;;4.03;;
53903;SDS011;39812;52.430;16.936;2023-06-19T14:06:52;4.50;;;3.78;;
53903;SDS011;39812;52.430;16.936;2023-06-19T14:09:19;8.05;;;4.22;;
53903;SDS011;39812;52.430;16.936;2023-06-19T14:11:45;4.15;;;3.70;;
53903;SDS011;39812;52.430;16.936;2023-06-19T14:14:11;4.93;;;3.22;;
53903;SDS011;39812;52.430;16.936;2023-06-19T14:16:36;5.35;;;3.53;;
53903;SDS011;39812;52.430;16.936;2023-06-19T14:19:02;3.78;;;3.40;;
53903;SDS011;39812;52.430;16.936;2023-06-19T14:21:27;4.03;;;3.53;;
53903;SDS011;39812;52.430;16.936;2023-06-19T14:23:53;6.30;;;3.78;;
53903;SDS011;39812;52.430;16.936;2023-06-19T14:26:19;5.47;;;3.60;;
53903;SDS011;39812;52.430;16.936;2023-06-19T14:28:46;5.07;;;3.42;;
53903;SDS011;39812;52.430;16.936;2023-06-19T14:31:11;5.03;;;3.38;;
53903;SDS011;39812;52.430;16.936;2023-06-19T14:33:37;4.72;;;3.50;;
53903;SDS011;39812;52.430;16.936;2023-06-19T14:36:03;4.78;;;3.90;;